Time,TemperatureF,DewpointF,PressureIn,WindDirection,WindDirectionDegrees,WindSpeedMPH,WindSpeedGustMPH,Humidity,HourlyPrecipIn,Conditions,Clouds,dailyrainin,SoftwareType,DateUTC
2013-01-26 00:04:00,14.4,11.8,29.98,West,270,3.2,-999.0,89,-99.99,,,0.00,Acu-Link.com,2013-01-26 06:04:00,
2013-01-26 00:20:00,13.6,11.2,29.98,WNW,292,1.1,-999.0,90,-99.99,,,0.00,Acu-Link.com,2013-01-26 06:20:00,
2013-01-26 00:35:00,12.9,10.8,29.99,West,270,5.8,-999.0,91,-99.99,,,0.00,Acu-Link.com,2013-01-26 06:35:00,
2013-01-26 00:50:00,12.4,10.5,29.99,NW,315,1.7,-999.0,92,-99.99,,,0.00,Acu-Link.com,2013-01-26 06:50:00,
2013-01-26 01:05:00,12.4,10.5,30.00,WSW,247,3.7,-999.0,92,-99.99,,,0.00,Acu-Link.com,2013-01-26 07:05:00,
2013-01-26 01:20:00,12.0,9.9,30.01,WNW,292,3.7,-999.0,91,-99.99,,,0.00,Acu-Link.com,2013-01-26 07:20:00,
2013-01-26 01:36:00,11.7,9.8,30.02,West,270,5.3,-999.0,92,-99.99,,,0.00,Acu-Link.com,2013-01-26 07:36:00,
2013-01-26 01:51:00,11.3,9.2,30.02,West,270,3.7,-999.0,91,-99.99,,,0.00,Acu-Link.com,2013-01-26 07:51:00,
2013-01-26 02:06:00,10.9,8.8,30.03,WNW,292,3.2,-999.0,91,-99.99,,,0.00,Acu-Link.com,2013-01-26 08:06:00,
2013-01-26 02:21:00,10.6,8.5,30.02,NNW,337,3.7,-999.0,91,-99.99,,,0.00,Acu-Link.com,2013-01-26 08:21:00,
2013-01-26 02:36:00,10.2,8.3,30.02,WNW,292,4.2,-999.0,92,-99.99,,,0.00,Acu-Link.com,2013-01-26 08:36:00,
2013-01-26 02:52:00,9.7,8.1,30.03,West,270,2.7,-999.0,93,-99.99,,,0.00,Acu-Link.com,2013-01-26 08:52:00,
2013-01-26 03:16:00,9.3,7.7,30.03,NNW,337,2.2,-999.0,93,-99.99,,,0.00,Acu-Link.com,2013-01-26 09:16:00,
2013-01-26 03:31:00,9.1,7.7,30.04,West,270,1.7,-999.0,94,-99.99,,,0.00,Acu-Link.com,2013-01-26 09:31:00,
2013-01-26 03:47:00,8.8,7.4,30.04,NNW,337,1.7,-999.0,94,-99.99,,,0.00,Acu-Link.com,2013-01-26 09:47:00,
2013-01-26 04:02:00,8.4,7.0,30.05,West,270,4.2,-999.0,94,-99.99,,,0.00,Acu-Link.com,2013-01-26 10:02:00,
2013-01-26 04:17:00,8.1,7.0,30.05,West,270,1.7,-999.0,95,-99.99,,,0.00,Acu-Link.com,2013-01-26 10:17:00,
2013-01-26 04:32:00,7.7,6.8,30.05,West,270,1.7,-999.0,96,-99.99,,,0.00,Acu-Link.com,2013-01-26 10:32:00,
2013-01-26 04:48:00,7.2,6.3,30.05,NNW,337,1.7,-999.0,96,-99.99,,,0.00,Acu-Link.com,2013-01-26 10:48:00,
2013-01-26 05:03:00,6.8,6.4,30.06,NW,315,0.0,-999.0,98,-99.99,,,0.00,Acu-Link.com,2013-01-26 11:03:00,
2013-01-26 05:18:00,6.4,6.0,30.06,NNW,337,0.0,-999.0,98,-99.99,,,0.00,Acu-Link.com,2013-01-26 11:18:00,
2013-01-26 05:33:00,6.4,6.0,30.07,West,270,3.2,-999.0,98,-99.99,,,0.00,Acu-Link.com,2013-01-26 11:33:00,
2013-01-26 05:49:00,6.1,5.9,30.07,West,270,1.1,-999.0,99,-99.99,,,0.00,Acu-Link.com,2013-01-26 11:49:00,
2013-01-26 06:04:00,5.9,5.7,30.08,NW,315,0.0,-999.0,99,-99.99,,,0.00,Acu-Link.com,2013-01-26 12:04:00,
2013-01-26 06:19:00,5.2,5.0,30.09,North,0,0.0,-999.0,99,-99.99,,,0.00,Acu-Link.com,2013-01-26 12:19:00,
2013-01-26 06:34:00,4.6,4.4,30.10,NW,315,0.0,-999.0,99,-99.99,,,0.00,Acu-Link.com,2013-01-26 12:34:00,
2013-01-26 06:50:00,5.5,5.3,30.10,West,270,2.7,-999.0,99,-99.99,,,0.00,Acu-Link.com,2013-01-26 12:50:00,
2013-01-26 07:05:00,6.4,6.0,30.10,WNW,292,3.7,-999.0,98,-99.99,,,0.00,Acu-Link.com,2013-01-26 13:05:00,
2013-01-26 07:20:00,6.8,5.9,30.11,WNW,292,4.7,-999.0,96,-99.99,,,0.00,Acu-Link.com,2013-01-26 13:20:00,
2013-01-26 07:35:00,7.0,6.1,30.12,WNW,292,5.3,-999.0,96,-99.99,,,0.00,Acu-Link.com,2013-01-26 13:35:00,
2013-01-26 07:50:00,8.2,6.4,30.12,WNW,292,3.2,-999.0,92,-99.99,,,0.00,Acu-Link.com,2013-01-26 13:50:00,
2013-01-26 08:06:00,9.0,6.4,30.13,West,270,4.2,-999.0,89,-99.99,,,0.00,Acu-Link.com,2013-01-26 14:06:00,
2013-01-26 08:21:00,9.3,6.5,30.13,WNW,292,3.2,-999.0,88,-99.99,,,0.00,Acu-Link.com,2013-01-26 14:21:00,
2013-01-26 08:36:00,9.7,6.9,30.14,West,270,2.2,-999.0,88,-99.99,,,0.00,Acu-Link.com,2013-01-26 14:36:00,
2013-01-26 08:51:00,10.8,6.9,30.14,West,270,3.2,-999.0,84,-99.99,,,0.00,Acu-Link.com,2013-01-26 14:51:00,
2013-01-26 09:06:00,12.2,7.5,30.15,WNW,292,6.3,-999.0,81,-99.99,,,0.00,Acu-Link.com,2013-01-26 15:06:00,
2013-01-26 09:22:00,13.3,8.0,30.16,NW,315,4.7,-999.0,79,-99.99,,,0.00,Acu-Link.com,2013-01-26 15:22:00,
2013-01-26 09:37:00,14.0,8.1,30.16,WNW,292,4.7,-999.0,77,-99.99,,,0.00,Acu-Link.com,2013-01-26 15:37:00,
2013-01-26 09:52:00,15.3,8.5,30.16,WNW,292,4.7,-999.0,74,-99.99,,,0.00,Acu-Link.com,2013-01-26 15:52:00,
2013-01-26 10:07:00,16.2,9.1,30.17,West,270,3.7,-999.0,73,-99.99,,,0.00,Acu-Link.com,2013-01-26 16:07:00,
2013-01-26 10:23:00,17.6,9.5,30.17,WNW,292,2.2,-999.0,70,-99.99,,,0.00,Acu-Link.com,2013-01-26 16:23:00,
2013-01-26 10:38:00,17.6,8.9,30.16,North,0,3.2,-999.0,68,-99.99,,,0.00,Acu-Link.com,2013-01-26 16:38:00,
2013-01-26 10:53:00,19.4,9.9,30.17,West,270,3.7,-999.0,66,-99.99,,,0.00,Acu-Link.com,2013-01-26 16:53:00,
2013-01-26 11:08:00,20.1,9.9,30.17,West,270,3.7,-999.0,64,-99.99,,,0.00,Acu-Link.com,2013-01-26 17:08:00,
2013-01-26 11:23:00,21.4,10.8,30.17,West,270,3.7,-999.0,63,-99.99,,,0.00,Acu-Link.com,2013-01-26 17:23:00,
2013-01-26 11:39:00,21.7,9.6,30.17,West,270,6.3,-999.0,59,-99.99,,,0.00,Acu-Link.com,2013-01-26 17:39:00,
2013-01-26 11:54:00,23.5,10.9,30.16,West,270,4.7,-999.0,58,-99.99,,,0.00,Acu-Link.com,2013-01-26 17:54:00,
2013-01-26 12:09:00,23.0,9.7,30.15,NW,315,3.7,-999.0,56,-99.99,,,0.00,Acu-Link.com,2013-01-26 18:09:00,
2013-01-26 12:24:00,24.1,9.9,30.16,NNW,337,3.7,-999.0,54,-99.99,,,0.00,Acu-Link.com,2013-01-26 18:24:00,
2013-01-26 12:39:00,24.1,9.1,30.15,NNE,22,2.7,-999.0,52,-99.99,,,0.00,Acu-Link.com,2013-01-26 18:39:00,
2013-01-26 12:55:00,22.6,8.5,30.15,NNW,337,1.7,-999.0,54,-99.99,,,0.00,Acu-Link.com,2013-01-26 18:55:00,
2013-01-26 13:10:00,24.6,9.9,30.15,WNW,292,3.2,-999.0,53,-99.99,,,0.00,Acu-Link.com,2013-01-26 19:10:00,
2013-01-26 13:25:00,24.4,9.3,30.14,WSW,247,3.7,-999.0,52,-99.99,,,0.00,Acu-Link.com,2013-01-26 19:25:00,
2013-01-26 13:40:00,25.2,9.2,30.15,West,270,2.7,-999.0,50,-99.99,,,0.00,Acu-Link.com,2013-01-26 19:40:00,
2013-01-26 13:55:00,25.2,9.6,30.14,SW,225,2.2,-999.0,51,-99.99,,,0.00,Acu-Link.com,2013-01-26 19:55:00,
2013-01-26 14:11:00,25.2,9.6,30.15,West,270,1.7,-999.0,51,-99.99,,,0.00,Acu-Link.com,2013-01-26 20:11:00,
2013-01-26 14:26:00,26.1,10.5,30.15,West,270,3.7,-999.0,51,-99.99,,,0.00,Acu-Link.com,2013-01-26 20:26:00,
2013-01-26 14:41:00,26.8,10.7,30.15,NW,315,1.7,-999.0,50,-99.99,,,0.00,Acu-Link.com,2013-01-26 20:41:00,
2013-01-26 14:56:00,27.0,11.3,30.15,WNW,292,3.2,-999.0,51,-99.99,,,0.00,Acu-Link.com,2013-01-26 20:56:00,
2013-01-26 15:11:00,25.7,9.7,30.15,WSW,247,1.1,-999.0,50,-99.99,,,0.00,Acu-Link.com,2013-01-26 21:11:00,
2013-01-26 15:27:00,27.0,10.4,30.15,NNE,22,2.2,-999.0,49,-99.99,,,0.00,Acu-Link.com,2013-01-26 21:27:00,
2013-01-26 15:42:00,26.4,10.3,30.16,West,270,0.0,-999.0,50,-99.99,,,0.00,Acu-Link.com,2013-01-26 21:42:00,
2013-01-26 15:57:00,27.5,9.9,30.16,SW,225,2.7,-999.0,47,-99.99,,,0.00,Acu-Link.com,2013-01-26 21:57:00,
2013-01-26 16:12:00,26.2,11.0,30.15,SSE,157,2.2,-999.0,52,-99.99,,,0.00,Acu-Link.com,2013-01-26 22:12:00,
2013-01-26 16:28:00,25.5,9.5,30.14,South,180,2.2,-999.0,50,-99.99,,,0.00,Acu-Link.com,2013-01-26 22:28:00,
2013-01-26 16:43:00,23.4,8.8,30.15,South,180,1.1,-999.0,53,-99.99,,,0.00,Acu-Link.com,2013-01-26 22:43:00,
2013-01-26 16:58:00,21.7,8.8,30.15,South,180,2.7,-999.0,57,-99.99,,,0.00,Acu-Link.com,2013-01-26 22:58:00,
2013-01-26 17:13:00,20.1,8.5,30.15,SSE,157,0.0,-999.0,60,-99.99,,,0.00,Acu-Link.com,2013-01-26 23:13:00,
2013-01-26 17:28:00,18.7,8.6,30.14,ESE,112,0.0,-999.0,64,-99.99,,,0.00,Acu-Link.com,2013-01-26 23:28:00,
2013-01-26 17:44:00,18.7,8.6,30.15,SW,225,1.1,-999.0,64,-99.99,,,0.00,Acu-Link.com,2013-01-26 23:44:00,
2013-01-26 17:59:00,18.5,9.4,30.14,ESE,112,2.7,-999.0,67,-99.99,,,0.00,Acu-Link.com,2013-01-26 23:59:00,
2013-01-26 18:14:00,18.7,8.9,30.14,ESE,112,0.0,-999.0,65,-99.99,,,0.00,Acu-Link.com,2013-01-27 00:14:00,
2013-01-26 18:29:00,18.7,9.6,30.14,SSE,157,0.0,-999.0,67,-99.99,,,0.00,Acu-Link.com,2013-01-27 00:29:00,
2013-01-26 18:44:00,20.1,10.6,30.15,SSE,157,1.7,-999.0,66,-99.99,,,0.00,Acu-Link.com,2013-01-27 00:44:00,
2013-01-26 19:00:00,20.7,10.8,30.15,SE,135,1.7,-999.0,65,-99.99,,,0.00,Acu-Link.com,2013-01-27 01:00:00,
2013-01-26 19:15:00,20.8,10.2,30.15,ESE,112,2.2,-999.0,63,-99.99,,,0.00,Acu-Link.com,2013-01-27 01:15:00,
2013-01-26 19:30:00,20.5,10.3,30.15,ESE,112,0.0,-999.0,64,-99.99,,,0.00,Acu-Link.com,2013-01-27 01:30:00,
2013-01-26 19:45:00,20.5,10.6,30.14,ESE,112,1.1,-999.0,65,-99.99,,,0.00,Acu-Link.com,2013-01-27 01:45:00,
2013-01-26 20:00:00,20.8,11.3,30.15,SSW,202,1.7,-999.0,66,-99.99,,,0.00,Acu-Link.com,2013-01-27 02:00:00,
2013-01-26 20:16:00,21.2,11.0,30.15,SSE,157,3.7,-999.0,64,-99.99,,,0.00,Acu-Link.com,2013-01-27 02:16:00,
2013-01-26 20:31:00,21.2,10.2,30.15,SE,135,2.7,-999.0,62,-99.99,,,0.00,Acu-Link.com,2013-01-27 02:31:00,
2013-01-26 20:46:00,21.2,10.2,30.16,SE,135,1.1,-999.0,62,-99.99,,,0.00,Acu-Link.com,2013-01-27 02:46:00,
2013-01-26 21:01:00,21.2,11.0,30.16,SSE,157,4.7,-999.0,64,-99.99,,,0.00,Acu-Link.com,2013-01-27 03:01:00,
2013-01-26 21:17:00,21.2,11.3,30.15,SSE,157,2.7,-999.0,65,-99.99,,,0.00,Acu-Link.com,2013-01-27 03:17:00,
2013-01-26 21:32:00,21.2,11.6,30.16,ESE,112,3.2,-999.0,66,-99.99,,,0.00,Acu-Link.com,2013-01-27 03:32:00,
2013-01-26 21:47:00,21.4,12.5,30.16,SSE,157,3.7,-999.0,68,-99.99,,,0.00,Acu-Link.com,2013-01-27 03:47:00,
2013-01-26 22:02:00,21.4,12.5,30.15,SE,135,3.2,-999.0,68,-99.99,,,0.00,Acu-Link.com,2013-01-27 04:02:00,
2013-01-26 22:17:00,21.6,12.4,30.16,ESE,112,2.7,-999.0,67,-99.99,,,0.00,Acu-Link.com,2013-01-27 04:17:00,
2013-01-26 22:33:00,21.7,12.8,30.15,ESE,112,3.7,-999.0,68,-99.99,,,0.00,Acu-Link.com,2013-01-27 04:33:00,
2013-01-26 22:48:00,21.7,13.1,30.15,SE,135,3.7,-999.0,69,-99.99,,,0.00,Acu-Link.com,2013-01-27 04:48:00,
2013-01-26 23:03:00,21.7,13.8,30.15,SSE,157,4.2,-999.0,71,-99.99,,,0.00,Acu-Link.com,2013-01-27 05:03:00,
2013-01-26 23:18:00,21.7,13.8,30.15,SSE,157,2.7,-999.0,71,-99.99,,,0.00,Acu-Link.com,2013-01-27 05:18:00,
2013-01-26 23:33:00,21.9,14.9,30.14,SSE,157,5.3,-999.0,74,-99.99,,,0.00,Acu-Link.com,2013-01-27 05:33:00,
2013-01-26 23:49:00,22.1,14.5,30.14,SE,135,3.7,-999.0,72,-99.99,,,0.00,Acu-Link.com,2013-01-27 05:49:00,